createdAt,value
2019-03-15T00:02:43.567Z,100197.16
2019-03-15T00:07:49.086Z,100204.86
2019-03-15T00:12:54.576Z,100210.33
2019-03-15T00:18:00.136Z,100213.86
2019-03-15T00:23:05.866Z,100216.11
2019-03-15T00:28:11.361Z,100214.05
2019-03-15T00:33:16.934Z,100218.05
2019-03-15T00:38:22.487Z,100208.58
2019-03-15T00:43:28.069Z,100209.66
2019-03-15T00:48:33.647Z,100224.57
2019-03-15T00:53:39.206Z,100222.78
2019-03-15T00:58:44.752Z,100217.89
2019-03-15T01:03:50.340Z,100220.29
2019-03-15T01:08:55.922Z,100219.76
2019-03-15T01:14:01.493Z,100212.45
2019-03-15T01:19:07.040Z,100211.26
2019-03-15T01:24:12.512Z,100211.84
2019-03-15T01:29:18.025Z,100205.42
2019-03-15T01:34:23.599Z,100200.31
2019-03-15T01:39:29.092Z,100200.78
2019-03-15T01:44:34.621Z,100202.44
2019-03-15T01:49:40.145Z,100209.23
2019-03-15T01:54:45.657Z,100207.63
2019-03-15T01:59:51.230Z,100203.92
2019-03-15T02:04:57.627Z,100188.50
2019-03-15T02:10:03.201Z,100185.50
2019-03-15T02:15:09.708Z,100186.84
2019-03-15T02:20:15.207Z,100195.52
2019-03-15T02:25:20.719Z,100191.28
2019-03-15T02:30:26.304Z,100189.43
2019-03-15T02:35:31.834Z,100180.25
2019-03-15T02:40:38.224Z,100185.59
2019-03-15T02:45:43.835Z,100178.02
2019-03-15T02:50:49.481Z,100191.56
2019-03-15T02:55:55.004Z,100176.21
2019-03-15T03:01:00.520Z,100177.06
2019-03-15T03:06:06.045Z,100183.31
2019-03-15T03:11:11.630Z,100188.17
2019-03-15T03:16:18.558Z,100191.38
2019-03-15T03:21:24.182Z,100190.52
2019-03-15T03:26:29.633Z,100189.62
2019-03-15T03:31:35.143Z,100181.47
2019-03-15T03:36:40.592Z,100169.05
2019-03-15T03:41:46.084Z,100162.86
2019-03-15T03:46:52.523Z,100142.20
2019-03-15T03:51:58.285Z,100142.02
2019-03-15T03:57:03.767Z,100144.63
2019-03-15T04:02:09.289Z,100145.56
2019-03-15T04:07:14.831Z,100132.64
2019-03-15T04:12:20.420Z,100122.13
2019-03-15T04:17:25.890Z,100122.01
2019-03-15T04:22:31.423Z,100118.70
2019-03-15T04:27:36.881Z,100122.99
2019-03-15T04:32:42.517Z,100129.84
2019-03-15T04:37:48.060Z,100125.23
2019-03-15T04:42:53.611Z,100125.91
2019-03-15T04:47:59.247Z,100126.44
2019-03-15T04:53:04.766Z,100128.31
2019-03-15T04:58:10.228Z,100116.10
2019-03-15T05:03:15.731Z,100114.62
2019-03-15T05:08:21.218Z,100105.93
2019-03-15T05:13:26.693Z,100099.00
2019-03-15T05:18:32.192Z,100099.97
2019-03-15T05:23:37.745Z,100095.08
2019-03-15T05:28:43.247Z,100092.67
2019-03-15T05:33:48.745Z,100098.73
2019-03-15T05:38:59.651Z,100079.03
2019-03-15T05:44:05.379Z,100070.59
2019-03-15T05:49:10.891Z,100069.16
2019-03-15T05:54:16.413Z,100057.91
2019-03-15T05:59:21.954Z,100060.08
2019-03-15T06:04:27.492Z,100065.61
2019-03-15T06:09:32.986Z,100063.58
2019-03-15T06:14:38.534Z,100052.66
2019-03-15T06:19:44.050Z,100048.25
2019-03-15T06:24:49.604Z,100035.52
2019-03-15T06:29:55.130Z,100023.75
2019-03-15T06:35:00.650Z,100026.03
2019-03-15T06:40:06.341Z,100014.53
2019-03-15T06:45:11.934Z,100010.80
2019-03-15T06:50:17.452Z,100002.70
2019-03-15T06:55:22.983Z,99994.53
2019-03-15T07:00:28.510Z,99989.59
2019-03-15T07:05:33.999Z,99979.71
2019-03-15T07:10:39.499Z,99969.80
2019-03-15T07:15:45.075Z,99972.64
2019-03-15T07:20:50.687Z,99960.90
2019-03-15T07:25:56.588Z,99960.06
2019-03-15T07:31:02.078Z,99953.62
2019-03-15T07:36:07.634Z,99941.31
2019-03-15T07:41:13.098Z,99936.58
2019-03-15T07:46:18.806Z,99927.70
2019-03-15T07:51:24.288Z,99916.98
2019-03-15T07:56:29.786Z,99917.47
2019-03-15T08:01:35.285Z,99901.43
2019-03-15T08:06:40.796Z,99909.77
2019-03-15T08:11:46.290Z,99903.22
2019-03-15T08:16:51.780Z,99900.62
2019-03-15T08:21:57.348Z,99900.78
2019-03-15T08:27:02.804Z,99896.32
2019-03-15T08:32:08.319Z,99891.39
2019-03-15T08:37:13.811Z,99883.64
2019-03-15T08:42:19.273Z,99891.25
2019-03-15T08:47:24.845Z,99892.80
2019-03-15T08:52:30.349Z,99885.66
2019-03-15T08:57:36.024Z,99881.96
2019-03-15T09:02:41.547Z,99884.56
2019-03-15T09:07:47.076Z,99888.14
2019-03-15T09:12:52.658Z,99891.72
2019-03-15T09:17:58.218Z,99888.41
2019-03-15T09:23:03.899Z,99902.09
2019-03-15T09:28:09.397Z,99888.23
2019-03-15T09:33:14.956Z,99893.85
2019-03-15T09:38:20.671Z,99897.05
2019-03-15T09:43:26.177Z,99888.84
2019-03-15T09:48:31.689Z,99887.96
2019-03-15T09:53:37.224Z,99879.11
2019-03-15T09:58:42.846Z,99884.53
2019-03-15T10:03:48.317Z,99886.92
2019-03-15T10:08:53.769Z,99898.17
2019-03-15T10:14:02.153Z,99893.69
2019-03-15T10:19:06.476Z,99898.88
2019-03-15T10:24:15.728Z,99884.84
2019-03-15T10:29:20.828Z,99899.03
2019-03-15T10:34:26.293Z,99901.61
2019-03-15T10:39:31.877Z,99922.61
2019-03-15T10:44:37.468Z,99926.42
2019-03-15T10:49:43.032Z,99925.36
2019-03-15T10:54:48.528Z,99931.09
2019-03-15T10:59:54.039Z,99938.39
2019-03-15T11:04:59.533Z,99936.48
2019-03-15T11:10:05.029Z,99950.48
2019-03-15T11:15:10.655Z,99950.64
2019-03-15T11:20:16.115Z,99951.09
2019-03-15T11:25:21.638Z,99965.64
2019-03-15T11:30:27.170Z,99976.77
2019-03-15T11:35:32.693Z,99967.77
2019-03-15T11:40:38.277Z,99986.96
2019-03-15T11:45:44.005Z,99987.25
2019-03-15T11:50:49.455Z,99974.48
2019-03-15T11:55:54.954Z,99973.88
2019-03-15T12:01:00.477Z,99982.09
2019-03-15T12:06:06.120Z,99990.18
2019-03-15T12:11:11.578Z,100000.82
2019-03-15T12:16:17.298Z,99969.27
2019-03-15T12:21:22.931Z,99990.27
2019-03-15T12:26:39.753Z,99985.63
2019-03-15T12:31:35.662Z,99994.84
2019-03-15T12:36:41.146Z,99964.27
2019-03-15T12:41:46.749Z,99966.67
2019-03-15T12:46:52.274Z,99984.70
2019-03-15T12:51:57.752Z,99992.58
2019-03-15T12:57:03.384Z,100004.55
2019-03-15T13:02:08.896Z,99998.28
2019-03-15T13:07:14.387Z,99992.00
2019-03-15T13:12:19.882Z,99998.45
2019-03-15T13:17:25.353Z,99997.89
2019-03-15T13:22:30.885Z,99994.52
2019-03-15T13:27:36.398Z,99973.10
2019-03-15T13:32:43.432Z,99991.06
2019-03-15T13:37:49.039Z,100000.92
2019-03-15T13:42:54.530Z,99993.42
2019-03-15T13:48:00.015Z,99985.32
2019-03-15T13:53:05.557Z,99989.80
2019-03-15T13:58:11.100Z,99983.60
2019-03-15T14:03:16.707Z,99985.64
2019-03-15T14:08:22.288Z,99995.55
2019-03-15T14:13:27.942Z,99986.13
2019-03-15T14:18:33.437Z,99969.20
2019-03-15T14:23:39.194Z,99979.30
2019-03-15T14:28:44.864Z,99983.00
2019-03-15T14:33:50.526Z,99976.97
2019-03-15T14:38:56.056Z,99975.05
2019-03-15T14:44:01.785Z,99960.47
2019-03-15T14:49:07.597Z,99968.27
2019-03-15T14:54:13.152Z,99949.43
2019-03-15T14:59:19.126Z,99956.89
2019-03-15T15:04:25.068Z,99966.91
2019-03-15T15:09:30.952Z,99968.78
2019-03-15T15:14:36.436Z,99971.45
2019-03-15T15:19:41.931Z,99945.11
2019-03-15T15:24:47.454Z,99970.53
2019-03-15T15:29:52.957Z,99967.36
2019-03-15T15:34:58.411Z,99951.38
2019-03-15T15:40:03.997Z,99953.98
2019-03-15T15:45:17.504Z,99968.16
2019-03-15T15:50:23.077Z,99967.78
2019-03-15T15:55:28.708Z,99951.66
2019-03-15T16:00:34.193Z,99953.59
2019-03-15T16:05:39.738Z,99952.94
2019-03-15T16:10:45.251Z,99934.93
2019-03-15T16:15:50.897Z,99950.75
2019-03-15T16:20:56.423Z,99952.72
2019-03-15T16:26:01.932Z,99938.91
2019-03-15T16:31:07.668Z,99941.77
2019-03-15T16:36:13.149Z,99944.67
2019-03-15T16:41:18.657Z,99939.70
2019-03-15T16:46:24.181Z,99950.80
2019-03-15T16:51:29.660Z,99931.73
2019-03-15T16:56:35.224Z,99953.19
2019-03-15T17:01:40.687Z,99938.38
2019-03-15T17:06:46.258Z,99947.13
2019-03-15T17:11:51.760Z,99960.52
2019-03-15T17:16:57.299Z,99974.77
2019-03-15T17:22:02.829Z,99980.02
2019-03-15T17:27:08.447Z,99980.39
2019-03-15T17:32:14.015Z,99996.12
2019-03-15T17:37:19.588Z,99995.73
2019-03-15T17:42:25.326Z,100016.13
2019-03-15T17:47:30.970Z,100002.57
2019-03-15T17:52:36.495Z,100023.55
2019-03-15T17:57:45.329Z,100015.37
2019-03-15T18:02:49.309Z,100007.15
2019-03-15T18:07:54.873Z,100022.55
2019-03-15T18:13:00.400Z,100027.77
2019-03-15T18:18:05.916Z,100045.41
2019-03-15T18:23:11.496Z,100051.19
2019-03-15T18:28:17.066Z,100059.47
2019-03-15T18:33:22.569Z,100063.28
2019-03-15T18:38:28.379Z,100065.91
2019-03-15T18:43:33.857Z,100091.66
2019-03-15T18:48:39.421Z,100113.12
2019-03-15T18:53:44.919Z,100109.59
2019-03-15T18:58:50.438Z,100132.83
2019-03-15T19:03:56.203Z,100154.09
2019-03-15T19:09:02.087Z,100155.93
2019-03-15T19:14:07.667Z,100162.30
2019-03-15T19:19:13.148Z,100157.16
2019-03-15T19:24:18.673Z,100169.42
2019-03-15T19:29:24.429Z,100191.95
2019-03-15T19:34:29.914Z,100199.37
2019-03-15T19:39:35.424Z,100208.02
2019-03-15T19:44:40.974Z,100228.80
2019-03-15T19:49:46.577Z,100217.77
2019-03-15T19:55:00.267Z,100222.52
2019-03-15T20:00:07.790Z,100233.30
2019-03-15T20:05:06.729Z,100244.95
2019-03-15T20:10:16.163Z,100265.47
2019-03-15T20:15:20.239Z,100276.23
2019-03-15T20:20:25.728Z,100282.66
2019-03-15T20:25:31.250Z,100301.30
2019-03-15T20:30:36.726Z,100305.34
2019-03-15T20:35:42.193Z,100303.58
2019-03-15T20:40:47.731Z,100308.97
2019-03-15T20:45:53.417Z,100309.61
2019-03-15T20:50:59.051Z,100323.12
2019-03-15T20:56:04.501Z,100314.24
2019-03-15T21:01:10.047Z,100297.73
2019-03-15T21:06:15.573Z,100304.37
2019-03-15T21:11:21.047Z,100310.08
2019-03-15T21:16:26.554Z,100322.89
2019-03-15T21:21:32.022Z,100326.05
2019-03-15T21:26:37.535Z,100322.18
2019-03-15T21:31:43.078Z,100339.14
2019-03-15T21:36:48.622Z,100356.63
2019-03-15T21:41:54.211Z,100367.16
2019-03-15T21:46:59.730Z,100374.50
2019-03-15T21:52:05.317Z,100377.38
2019-03-15T21:57:10.802Z,100377.99
2019-03-15T22:02:16.507Z,100392.39
2019-03-15T22:07:21.975Z,100390.80
2019-03-15T22:12:27.498Z,100402.75
2019-03-15T22:17:33.016Z,100409.02
2019-03-15T22:22:38.496Z,100416.63
2019-03-15T22:27:49.980Z,100426.42
2019-03-15T22:32:54.091Z,100440.22
2019-03-15T22:37:59.592Z,100435.48
2019-03-15T22:43:05.125Z,100434.44
2019-03-15T22:48:10.639Z,100429.02
2019-03-15T22:53:16.185Z,100417.85
2019-03-15T22:58:21.677Z,100424.31
2019-03-15T23:03:27.325Z,100428.58
2019-03-15T23:08:32.845Z,100436.53
2019-03-15T23:13:38.395Z,100457.63
2019-03-15T23:18:43.862Z,100458.83
2019-03-15T23:23:49.387Z,100463.16
2019-03-15T23:28:54.875Z,100469.31
2019-03-15T23:34:00.348Z,100463.08
2019-03-15T23:39:07.220Z,100460.00
2019-03-15T23:44:12.703Z,100458.44
2019-03-15T23:49:18.228Z,100476.36
2019-03-15T23:54:23.721Z,100484.25
2019-03-15T23:59:29.233Z,100484.20
